createdAt,value
2019-03-01T00:00:19.580Z,21.75
2019-03-01T00:02:48.245Z,21.05
2019-03-01T00:05:46.983Z,22.40
2019-03-01T00:08:18.155Z,21.02
2019-03-01T00:11:00.418Z,21.33
2019-03-01T00:13:48.880Z,20.82
2019-03-01T00:16:33.847Z,21.73
2019-03-01T00:19:15.815Z,20.12
2019-03-01T00:22:19.580Z,20.68
2019-03-01T00:25:04.517Z,20.65
2019-03-01T00:27:59.029Z,20.72
2019-03-01T00:30:40.999Z,22.00
2019-03-01T00:33:35.083Z,21.30
2019-03-01T00:36:28.877Z,20.52
2019-03-01T00:39:17.160Z,19.70
2019-03-01T00:41:56.355Z,20.37
2019-03-01T00:44:44.926Z,20.30
2019-03-01T00:47:14.292Z,20.37
2019-03-01T00:49:43.049Z,21.12
2019-03-01T00:52:11.756Z,20.15
2019-03-01T00:54:40.439Z,20.35
2019-03-01T00:57:09.265Z,19.98
2019-03-01T00:59:37.997Z,21.27
2019-03-01T01:02:06.611Z,22.37
2019-03-01T01:04:35.268Z,21.07
2019-03-01T01:07:04.292Z,20.32
2019-03-01T01:09:32.959Z,21.95
2019-03-01T01:12:01.680Z,20.12
2019-03-01T01:14:30.291Z,21.37
2019-03-01T01:16:58.901Z,21.50
2019-03-01T01:19:27.632Z,20.88
2019-03-01T01:21:56.252Z,19.80
2019-03-01T01:24:24.921Z,21.07
2019-03-01T01:26:53.533Z,19.73
2019-03-01T01:29:22.147Z,19.60
2019-03-01T01:31:50.809Z,19.87
2019-03-01T01:34:19.426Z,21.15
2019-03-01T01:36:48.089Z,21.48
2019-03-01T01:39:16.698Z,21.17
2019-03-01T01:41:45.423Z,21.30
2019-03-01T01:44:14.038Z,20.43
2019-03-01T01:46:42.705Z,20.15
2019-03-01T01:49:11.314Z,20.27
2019-03-01T01:51:40.015Z,19.05
2019-03-01T01:54:08.688Z,19.62
2019-03-01T01:56:37.307Z,19.45
2019-03-01T01:59:05.916Z,19.00
2019-03-01T02:01:34.579Z,19.75
2019-03-01T02:04:03.262Z,18.23
2019-03-01T02:06:31.916Z,19.92
2019-03-01T02:09:00.614Z,20.17
2019-03-01T02:11:29.547Z,19.90
2019-03-01T02:13:58.151Z,19.65
2019-03-01T02:16:26.759Z,20.32
2019-03-01T02:18:57.909Z,18.32
2019-03-01T02:21:25.766Z,18.75
2019-03-01T02:23:54.429Z,19.50
2019-03-01T02:26:23.041Z,18.30
2019-03-01T02:28:51.701Z,17.90
2019-03-01T02:31:20.389Z,19.32
2019-03-01T02:33:49.046Z,18.40
2019-03-01T02:36:17.698Z,16.42
2019-03-01T02:38:46.430Z,18.32
2019-03-01T02:41:15.035Z,15.25
2019-03-01T02:43:43.640Z,17.92
2019-03-01T02:46:12.296Z,18.57
2019-03-01T02:48:40.907Z,18.57
2019-03-01T02:51:09.557Z,17.92
2019-03-01T02:53:38.163Z,17.32
2019-03-01T02:56:06.835Z,18.80
2019-03-01T02:58:35.567Z,18.87
2019-03-01T03:01:04.245Z,20.32
2019-03-01T03:03:32.900Z,19.73
2019-03-01T03:06:01.618Z,16.87
2019-03-01T03:08:30.274Z,18.25
2019-03-01T03:10:58.881Z,17.60
2019-03-01T03:13:27.536Z,17.62
2019-03-01T03:15:56.194Z,18.27
2019-03-01T03:18:24.796Z,17.67
2019-03-01T03:20:53.444Z,16.97
2019-03-01T03:23:22.215Z,18.62
2019-03-01T03:25:50.823Z,17.73
2019-03-01T03:28:19.443Z,17.95
2019-03-01T03:30:48.166Z,18.15
2019-03-01T03:33:16.768Z,18.10
2019-03-01T03:35:45.370Z,17.98
2019-03-01T03:38:14.023Z,16.02
2019-03-01T03:40:42.683Z,18.17
2019-03-01T03:43:11.282Z,17.45
2019-03-01T03:45:39.938Z,18.87
2019-03-01T03:48:08.587Z,16.73
2019-03-01T03:50:37.192Z,18.30
2019-03-01T03:53:05.843Z,17.00
2019-03-01T03:55:34.454Z,16.90
2019-03-01T03:58:03.171Z,18.50
2019-03-01T04:00:31.773Z,18.82
2019-03-01T04:03:00.489Z,17.17
2019-03-01T04:05:29.117Z,18.95
2019-03-01T04:07:57.939Z,17.65
2019-03-01T04:10:26.621Z,19.17
2019-03-01T04:12:55.379Z,18.65
2019-03-01T04:15:23.982Z,18.48
2019-03-01T04:17:52.630Z,19.10
2019-03-01T04:20:21.239Z,17.57
2019-03-01T04:22:49.909Z,16.20
2019-03-01T04:25:18.571Z,17.32
2019-03-01T04:27:47.222Z,16.82
2019-03-01T04:30:17.633Z,17.27
2019-03-01T04:32:46.284Z,17.17
2019-03-01T04:35:14.990Z,14.30
2019-03-01T04:37:43.686Z,15.32
2019-03-01T04:40:14.665Z,15.78
2019-03-01T04:42:43.318Z,15.25
2019-03-01T04:45:14.941Z,17.30
2019-03-01T04:47:43.590Z,17.00
2019-03-01T04:50:12.933Z,16.25
2019-03-01T04:52:41.952Z,17.00
2019-03-01T04:55:14.465Z,16.02
2019-03-01T04:57:43.146Z,17.15
2019-03-01T05:00:15.728Z,18.73
2019-03-01T05:02:44.395Z,16.57
2019-03-01T05:05:13.616Z,17.23
2019-03-01T05:07:42.278Z,17.45
2019-03-01T05:10:12.894Z,14.60
2019-03-01T05:12:41.513Z,16.17
2019-03-01T05:15:21.500Z,17.05
2019-03-01T05:17:50.234Z,16.32
2019-03-01T05:20:18.966Z,16.00
2019-03-01T05:22:47.574Z,14.87
2019-03-01T05:25:16.349Z,16.02
2019-03-01T05:27:44.994Z,15.70
2019-03-01T05:30:16.750Z,14.93
2019-03-01T05:32:45.400Z,15.30
2019-03-01T05:35:14.399Z,14.75
2019-03-01T05:37:43.179Z,15.60
2019-03-01T05:40:16.388Z,15.65
2019-03-01T05:42:44.991Z,14.75
2019-03-01T05:45:26.755Z,15.38
2019-03-01T05:47:55.360Z,14.50
2019-03-01T05:50:23.965Z,15.20
2019-03-01T05:52:52.617Z,16.02
2019-03-01T05:55:21.222Z,15.48
2019-03-01T05:58:28.764Z,15.45
2019-03-01T06:01:24.271Z,15.65
2019-03-01T06:04:06.627Z,14.10
2019-03-01T06:06:46.303Z,14.40
2019-03-01T06:09:42.002Z,14.83
2019-03-01T06:12:37.977Z,14.80
2019-03-01T06:15:25.739Z,13.38
2019-03-01T06:18:35.208Z,13.93
2019-03-01T06:21:17.378Z,13.93
2019-03-01T06:24:15.143Z,13.68
2019-03-01T06:27:17.977Z,12.78
2019-03-01T06:30:02.946Z,13.95
2019-03-01T06:32:58.742Z,13.75
2019-03-01T06:35:46.343Z,13.70
2019-03-01T06:38:31.134Z,14.70
2019-03-01T06:41:10.095Z,14.98
2019-03-01T06:44:13.686Z,13.30
2019-03-01T06:47:07.875Z,15.00
2019-03-01T06:52:04.429Z,14.58
2019-03-01T06:54:33.086Z,15.13
2019-03-01T06:57:01.693Z,16.07
2019-03-01T06:59:30.347Z,14.40
2019-03-01T07:01:58.955Z,16.40
2019-03-01T07:04:27.605Z,16.07
2019-03-01T07:06:56.256Z,17.62
2019-03-01T07:09:24.861Z,17.20
2019-03-01T07:11:53.517Z,17.02
2019-03-01T07:14:22.121Z,17.07
2019-03-01T07:16:50.773Z,16.42
2019-03-01T07:19:19.376Z,17.48
2019-03-01T07:21:48.038Z,17.77
2019-03-01T07:24:16.690Z,16.87
2019-03-01T07:26:45.460Z,17.02
2019-03-01T07:29:14.074Z,17.67
2019-03-01T07:31:42.718Z,17.67
2019-03-01T07:34:11.327Z,18.20
2019-03-01T07:36:40.059Z,16.23
2019-03-01T07:39:11.364Z,18.62
2019-03-01T07:41:40.018Z,17.27
2019-03-01T07:44:08.625Z,18.27
2019-03-01T07:46:37.283Z,19.48
2019-03-01T07:49:05.882Z,18.80
2019-03-01T07:51:35.991Z,18.07
2019-03-01T07:54:04.790Z,18.27
2019-03-01T07:56:36.975Z,17.27
2019-03-01T07:59:03.774Z,17.23
2019-03-01T08:01:32.443Z,18.00
2019-03-01T08:04:01.957Z,17.02
2019-03-01T08:06:30.634Z,15.28
2019-03-01T08:08:59.289Z,16.73
2019-03-01T08:11:28.468Z,15.85
2019-03-01T08:13:58.278Z,17.70
2019-03-01T08:16:26.884Z,16.40
2019-03-01T08:18:55.530Z,15.88
2019-03-01T08:21:24.138Z,17.82
2019-03-01T08:23:52.795Z,17.80
2019-03-01T08:26:21.398Z,16.35
2019-03-01T08:28:50.059Z,17.62
2019-03-01T08:31:20.960Z,17.25
2019-03-01T08:33:49.058Z,18.30
2019-03-01T08:36:17.659Z,17.32
2019-03-01T08:38:46.286Z,17.32
2019-03-01T08:41:14.936Z,17.05
2019-03-01T08:43:44.686Z,16.37
2019-03-01T08:46:13.916Z,17.45
2019-03-01T08:48:42.521Z,16.67
2019-03-01T08:51:11.174Z,16.40
2019-03-01T08:53:39.777Z,17.70
2019-03-01T08:56:11.055Z,17.32
2019-03-01T08:58:41.491Z,16.62
2019-03-01T09:01:13.817Z,17.20
2019-03-01T09:03:56.226Z,16.97
2019-03-01T09:06:24.831Z,18.67
2019-03-01T09:08:53.494Z,16.97
2019-03-01T09:11:22.148Z,18.20
2019-03-01T09:13:50.753Z,18.65
2019-03-01T09:16:19.474Z,18.35
2019-03-01T09:18:50.159Z,16.95
2019-03-01T09:21:18.463Z,19.57
2019-03-01T09:23:48.046Z,19.82
2019-03-01T09:26:19.934Z,18.65
2019-03-01T09:28:47.897Z,19.48
2019-03-01T09:31:16.551Z,19.62
2019-03-01T09:33:45.233Z,18.75
2019-03-01T09:36:14.497Z,18.87
2019-03-01T09:38:44.218Z,18.07
2019-03-01T09:41:12.926Z,19.60
2019-03-01T09:43:41.579Z,19.00
2019-03-01T09:46:10.186Z,18.92
2019-03-01T09:48:38.922Z,20.55
2019-03-01T09:51:10.737Z,18.25
2019-03-01T09:53:37.909Z,18.67
2019-03-01T09:56:09.767Z,18.73
2019-03-01T09:58:36.860Z,18.15
2019-03-01T10:01:12.661Z,18.60
2019-03-01T10:03:41.318Z,18.32
2019-03-01T10:06:09.929Z,18.55
2019-03-01T10:08:38.542Z,20.48
2019-03-01T10:11:07.274Z,20.55
2019-03-01T10:16:04.824Z,18.05
2019-03-01T10:18:33.424Z,19.82
2019-03-01T10:21:02.183Z,19.17
2019-03-01T10:23:30.935Z,20.08
2019-03-01T10:25:59.588Z,19.65
2019-03-01T10:28:28.187Z,18.27
2019-03-01T10:30:56.842Z,20.70
2019-03-01T10:33:25.451Z,20.20
2019-03-01T10:35:54.102Z,20.80
2019-03-01T10:38:22.851Z,21.27
2019-03-01T10:40:51.520Z,22.52
2019-03-01T10:43:20.127Z,20.60
2019-03-01T10:45:48.729Z,20.20
2019-03-01T10:48:17.396Z,21.17
2019-03-01T10:50:46.072Z,19.57
2019-03-01T10:53:14.776Z,21.17
2019-03-01T10:55:43.499Z,21.17
2019-03-01T10:58:12.104Z,19.05
2019-03-01T11:00:40.957Z,20.68
2019-03-01T11:03:09.554Z,20.08
2019-03-01T11:05:38.210Z,21.80
2019-03-01T11:08:06.818Z,20.50
2019-03-01T11:10:40.411Z,21.50
2019-03-01T11:15:39.448Z,20.32
2019-03-01T11:18:08.105Z,20.00
2019-03-01T11:20:36.781Z,21.33
2019-03-01T11:23:05.440Z,20.72
2019-03-01T11:25:34.046Z,22.17
2019-03-01T11:28:02.732Z,21.48
2019-03-01T11:30:36.213Z,21.07
2019-03-01T11:33:05.035Z,20.57
2019-03-01T11:35:33.761Z,19.73
2019-03-01T11:38:02.415Z,20.55
2019-03-01T11:40:36.755Z,19.05
2019-03-01T11:43:06.071Z,20.35
2019-03-01T11:45:34.840Z,20.17
2019-03-01T11:48:03.918Z,20.25
2019-03-01T11:50:32.570Z,20.72
2019-03-01T11:53:01.174Z,20.20
2019-03-01T11:55:29.833Z,20.85
2019-03-01T11:57:58.448Z,23.20
2019-03-01T12:00:28.558Z,24.65
2019-03-01T12:02:57.214Z,20.72
2019-03-01T12:05:25.988Z,19.73
2019-03-01T12:07:54.713Z,19.55
2019-03-01T12:10:29.121Z,17.77
2019-03-01T12:12:57.781Z,19.82
2019-03-01T12:15:26.562Z,19.60
2019-03-01T12:17:55.221Z,22.98
2019-03-01T12:20:29.989Z,21.65
2019-03-01T12:22:58.735Z,19.05
2019-03-01T12:25:27.349Z,19.20
2019-03-01T12:27:56.007Z,20.50
2019-03-01T12:30:26.818Z,19.82
2019-03-01T12:32:55.637Z,20.50
2019-03-01T12:35:24.356Z,19.73
2019-03-01T12:37:53.735Z,19.23
2019-03-01T12:40:31.276Z,19.75
2019-03-01T12:42:59.887Z,20.52
2019-03-01T12:45:28.610Z,19.70
2019-03-01T12:47:57.367Z,19.27
2019-03-01T12:50:26.052Z,20.48
2019-03-01T12:52:54.667Z,18.87
2019-03-01T12:55:30.659Z,20.55
2019-03-01T12:57:59.385Z,20.75
2019-03-01T13:00:37.008Z,20.02
2019-03-01T13:03:08.954Z,20.10
2019-03-01T13:05:36.025Z,20.77
2019-03-01T13:08:04.755Z,21.10
2019-03-01T13:10:40.228Z,19.25
2019-03-01T13:13:08.543Z,18.82
2019-03-01T13:15:37.533Z,19.75
2019-03-01T13:18:06.143Z,18.32
2019-03-01T13:20:37.012Z,19.95
2019-03-01T13:23:06.254Z,19.12
2019-03-01T13:25:35.157Z,20.12
2019-03-01T13:28:03.838Z,19.02
2019-03-01T13:30:35.463Z,19.25
2019-03-01T13:33:03.591Z,17.62
2019-03-01T13:35:32.697Z,15.70
2019-03-01T13:38:01.349Z,18.80
2019-03-01T13:40:29.959Z,19.42
2019-03-01T13:42:58.623Z,20.15
2019-03-01T13:45:27.279Z,19.10
2019-03-01T13:47:56.006Z,19.10
2019-03-01T13:50:24.619Z,20.82
2019-03-01T13:52:53.271Z,18.70
2019-03-01T13:55:23.429Z,22.25
2019-03-01T13:57:52.329Z,21.17
2019-03-01T14:00:22.093Z,19.80
2019-03-01T14:02:51.027Z,22.15
2019-03-01T14:05:19.818Z,24.40
2019-03-01T14:07:55.553Z,23.18
2019-03-01T14:10:28.670Z,19.55
2019-03-01T14:12:57.302Z,21.55
2019-03-01T14:15:25.941Z,18.50
2019-03-01T14:18:00.449Z,21.68
2019-03-01T14:20:28.335Z,20.92
2019-03-01T14:22:57.188Z,18.50
2019-03-01T14:25:25.843Z,16.85
2019-03-01T14:27:54.533Z,17.17
2019-03-01T14:30:33.075Z,17.35
2019-03-01T14:33:00.388Z,16.15
2019-03-01T14:35:36.188Z,17.10
2019-03-01T14:38:05.156Z,15.08
2019-03-01T14:40:33.761Z,15.50
2019-03-01T14:43:06.411Z,15.98
2019-03-01T14:45:37.406Z,15.03
2019-03-01T14:48:10.455Z,14.63
2019-03-01T14:50:40.057Z,14.58
2019-03-01T14:53:10.977Z,14.65
2019-03-01T14:55:50.609Z,13.88
2019-03-01T14:58:39.522Z,14.40
2019-03-01T15:01:16.922Z,13.95
2019-03-01T15:04:28.996Z,12.33
2019-03-01T15:07:07.771Z,14.18
2019-03-01T15:09:41.857Z,12.60
2019-03-01T15:12:19.638Z,13.38
2019-03-01T15:14:49.562Z,14.15
2019-03-01T15:17:18.318Z,12.05
2019-03-01T15:19:46.494Z,12.82
2019-03-01T15:22:15.103Z,12.78
2019-03-01T15:24:43.761Z,11.97
2019-03-01T15:27:12.373Z,11.75
2019-03-01T15:29:41.023Z,11.38
2019-03-01T15:32:10.204Z,11.65
2019-03-01T15:34:38.864Z,12.47
2019-03-01T15:37:07.471Z,12.55
2019-03-01T15:39:36.126Z,12.60
2019-03-01T15:42:04.807Z,12.33
2019-03-01T15:44:33.465Z,12.47
2019-03-01T15:47:02.092Z,11.73
2019-03-01T15:49:30.747Z,11.80
2019-03-01T15:51:59.350Z,11.78
2019-03-01T15:54:27.957Z,12.00
2019-03-01T15:56:56.616Z,10.65
2019-03-01T15:59:25.216Z,10.35
2019-03-01T16:01:53.870Z,10.72
2019-03-01T16:04:22.648Z,11.88
2019-03-01T16:06:55.238Z,11.15
2019-03-01T16:09:24.839Z,11.10
2019-03-01T16:11:53.197Z,11.15
2019-03-01T16:14:24.126Z,9.78
2019-03-01T16:16:52.883Z,11.30
2019-03-01T16:19:21.535Z,13.32
2019-03-01T16:21:50.135Z,11.57
2019-03-01T16:24:18.789Z,11.97
2019-03-01T16:26:47.404Z,12.33
2019-03-01T16:29:16.058Z,10.08
2019-03-01T16:31:44.692Z,10.58
2019-03-01T16:34:13.915Z,10.88
2019-03-01T16:36:42.578Z,9.48
2019-03-01T16:39:12.203Z,9.50
2019-03-01T16:41:42.789Z,7.80
2019-03-01T16:44:11.186Z,9.00
2019-03-01T16:46:39.792Z,9.83
2019-03-01T16:49:08.442Z,8.73
2019-03-01T16:51:37.040Z,9.33
2019-03-01T16:54:05.837Z,9.73
2019-03-01T16:56:38.158Z,8.15
2019-03-01T16:59:07.106Z,8.60
2019-03-01T17:01:36.260Z,8.35
2019-03-01T17:04:04.855Z,8.35
2019-03-01T17:06:33.509Z,8.40
2019-03-01T17:09:02.925Z,8.18
2019-03-01T17:11:33.924Z,7.78
2019-03-01T17:14:04.283Z,8.50
2019-03-01T17:16:34.181Z,7.28
2019-03-01T17:19:03.055Z,7.03
2019-03-01T17:21:33.999Z,7.30
2019-03-01T17:24:02.790Z,7.53
2019-03-01T17:26:31.414Z,10.28
2019-03-01T17:29:03.144Z,7.25
2019-03-01T17:31:33.277Z,8.20
2019-03-01T17:34:04.503Z,7.80
2019-03-01T17:36:33.737Z,6.92
2019-03-01T17:39:03.702Z,8.15
2019-03-01T17:41:34.514Z,10.08
2019-03-01T17:44:08.718Z,10.82
2019-03-01T17:46:35.807Z,7.72
2019-03-01T17:49:04.432Z,7.72
2019-03-01T17:51:35.038Z,7.37
2019-03-01T17:54:04.977Z,7.75
2019-03-01T17:56:36.684Z,7.20
2019-03-01T17:59:11.827Z,7.67
2019-03-01T18:01:40.558Z,8.33
2019-03-01T18:04:09.767Z,8.45
2019-03-01T18:06:38.603Z,7.72
2019-03-01T18:09:07.277Z,7.05
2019-03-01T18:11:45.485Z,7.53
2019-03-01T18:14:14.527Z,6.70
2019-03-01T18:16:46.188Z,7.28
2019-03-01T18:19:16.251Z,6.90
2019-03-01T18:21:46.434Z,6.55
2019-03-01T18:24:17.347Z,7.55
2019-03-01T18:26:50.028Z,7.15
2019-03-01T18:29:18.698Z,7.12
2019-03-01T18:31:52.621Z,7.95
2019-03-01T18:34:21.379Z,7.40
2019-03-01T18:36:50.053Z,6.85
2019-03-01T18:39:18.705Z,6.95
2019-03-01T18:41:47.371Z,6.70
2019-03-01T18:44:16.020Z,6.75
2019-03-01T18:46:44.666Z,6.67
2019-03-01T18:49:13.289Z,6.47
2019-03-01T18:51:43.283Z,6.62
2019-03-01T18:54:12.891Z,5.85
2019-03-01T18:56:41.540Z,5.65
2019-03-01T18:59:10.147Z,5.90
2019-03-01T19:01:38.864Z,5.78
2019-03-01T19:04:07.519Z,5.87
2019-03-01T19:06:36.118Z,5.28
2019-03-01T19:09:06.616Z,4.95
2019-03-01T19:11:38.003Z,5.50
2019-03-01T19:14:05.651Z,4.78
2019-03-01T19:16:34.249Z,4.95
2019-03-01T19:19:02.972Z,4.70
2019-03-01T19:21:31.624Z,5.37
2019-03-01T19:24:00.323Z,5.30
2019-03-01T19:26:28.977Z,4.90
2019-03-01T19:28:59.021Z,5.87
2019-03-01T19:31:28.037Z,5.22
2019-03-01T19:33:56.700Z,5.20
2019-03-01T19:36:25.354Z,4.90
2019-03-01T19:38:56.718Z,5.25
2019-03-01T19:41:24.337Z,5.28
2019-03-01T19:43:57.444Z,5.33
2019-03-01T19:46:23.319Z,5.35
2019-03-01T19:48:51.925Z,5.37
2019-03-01T19:51:20.578Z,5.53
2019-03-01T19:53:49.266Z,5.15
2019-03-01T19:56:19.016Z,5.62
2019-03-01T19:58:48.922Z,5.37
2019-03-01T20:01:18.009Z,5.15
2019-03-01T20:03:47.427Z,4.87
2019-03-01T20:06:16.179Z,5.45
2019-03-01T20:08:44.779Z,5.60
2019-03-01T20:11:13.427Z,4.83
2019-03-01T20:13:42.027Z,5.40
2019-03-01T20:16:10.675Z,5.22
2019-03-01T20:18:41.774Z,5.00
2019-03-01T20:21:10.569Z,5.53
2019-03-01T20:23:39.217Z,4.78
2019-03-01T20:26:07.881Z,6.10
2019-03-01T20:28:36.491Z,6.00
2019-03-01T20:31:05.811Z,5.45
2019-03-01T20:33:34.686Z,4.92
2019-03-01T20:36:03.289Z,5.37
2019-03-01T20:38:31.941Z,5.42
2019-03-01T20:41:03.124Z,6.05
2019-03-01T20:43:30.960Z,5.83
2019-03-01T20:45:59.614Z,5.72
2019-03-01T20:48:28.945Z,5.55
2019-03-01T20:50:58.539Z,5.85
2019-03-01T20:53:27.145Z,6.15
2019-03-01T20:55:55.792Z,5.42
2019-03-01T20:58:24.445Z,5.08
2019-03-01T21:00:53.093Z,5.47
2019-03-01T21:03:24.068Z,6.70
2019-03-01T21:05:52.150Z,5.72
2019-03-01T21:08:20.916Z,5.90
2019-03-01T21:10:50.098Z,5.37
2019-03-01T21:13:19.449Z,6.30
2019-03-01T21:15:48.092Z,5.12
2019-03-01T21:18:16.693Z,5.10
2019-03-01T21:20:45.340Z,5.83
2019-03-01T21:23:15.194Z,5.58
2019-03-01T21:25:44.310Z,5.47
2019-03-01T21:28:12.960Z,6.20
2019-03-01T21:30:41.559Z,6.37
2019-03-01T21:33:10.235Z,6.42
2019-03-01T21:35:38.887Z,5.95
2019-03-01T21:38:10.557Z,5.90
2019-03-01T21:40:37.916Z,6.33
2019-03-01T21:43:06.614Z,5.80
2019-03-01T21:45:35.269Z,6.58
2019-03-01T21:48:03.920Z,5.97
2019-03-01T21:50:32.520Z,5.70
2019-03-01T21:53:01.683Z,6.72
2019-03-01T21:55:31.682Z,5.60
2019-03-01T21:58:03.436Z,5.78
2019-03-01T22:00:31.454Z,4.92
2019-03-01T22:03:00.335Z,5.87
2019-03-01T22:05:28.987Z,4.75
2019-03-01T22:07:57.585Z,5.60
2019-03-01T22:10:26.238Z,5.22
2019-03-01T22:12:58.925Z,6.30
2019-03-01T22:15:27.835Z,6.03
2019-03-01T22:17:56.703Z,5.90
2019-03-01T22:20:26.091Z,6.15
2019-03-01T22:22:54.691Z,5.90
2019-03-01T22:25:23.425Z,5.55
2019-03-01T22:27:52.019Z,6.10
2019-03-01T22:30:34.405Z,5.40
2019-03-01T22:33:03.178Z,5.70
2019-03-01T22:35:31.772Z,5.75
2019-03-01T22:38:04.502Z,5.92
2019-03-01T22:40:31.226Z,5.67
2019-03-01T22:42:59.832Z,5.65
2019-03-01T22:45:28.479Z,5.80
2019-03-01T22:47:57.078Z,5.15
2019-03-01T22:50:25.723Z,5.37
2019-03-01T22:52:54.321Z,5.42
2019-03-01T22:55:22.964Z,6.17
2019-03-01T22:57:51.565Z,5.65
2019-03-01T23:00:30.842Z,5.42
2019-03-01T23:02:59.510Z,5.17
2019-03-01T23:05:28.173Z,5.70
2019-03-01T23:07:59.897Z,5.33
2019-03-01T23:10:27.573Z,5.53
2019-03-01T23:12:56.216Z,6.08
2019-03-01T23:15:24.864Z,5.75
2019-03-01T23:17:53.509Z,5.03
2019-03-01T23:20:26.254Z,5.53
2019-03-01T23:22:52.665Z,4.92
2019-03-01T23:25:21.269Z,5.25
2019-03-01T23:27:49.916Z,5.22
2019-03-01T23:30:18.961Z,5.05
2019-03-01T23:32:48.746Z,5.25
2019-03-01T23:35:18.175Z,4.65
2019-03-01T23:37:47.768Z,5.12
2019-03-01T23:40:16.373Z,4.95
2019-03-01T23:42:44.969Z,4.60
2019-03-01T23:45:17.258Z,4.35
2019-03-01T23:47:43.946Z,4.50
2019-03-01T23:50:12.594Z,4.17
2019-03-01T23:52:41.194Z,4.20
2019-03-01T23:55:09.794Z,4.25
2019-03-01T23:57:41.088Z,4.05
